AirNav   Everest Fuels
 
 1325 users online  

6N7 New York Skyports Inc Seaplane Base
New York, New York, USA

GOING TO NEW YORK?


FAA INFORMATION EFFECTIVE 18 JUNE 2020

Location

FAA Identifier: 6N7
Lat/Long: 40-44-02.3670N 073-58-22.4990W
40-44.039450N 073-58.374983W
40.7339908,-73.9729164
(estimated)
Elevation: 0 ft. / 0 m (estimated)
Variation: 13W (1985)
Time zone: UTC -4 (UTC -5 during Standard Time)
Zip code: 10199

Seaplane Base Operations

Seaplane Base use: Open to the public
Activation date: 12/1946
Control tower: no
ARTCC: NEW YORK CENTER
FSS: NEW YORK FLIGHT SERVICE STATION
NOTAMs facility: ISP (NOTAM-D service available)
Attendance: 0800-DUSK
Wind indicator: yes
Segmented circle: no
Landing fee: yes

Seaplane Base Communications

CTAF: 122.9
WX AWOS-3PT at JRB (2.6 nm SW): 128.175 (212-425-1534)
WX ASOS at LGA (5 nm NE): PHONE 718-672-6317
WX ASOS at TEB (8 nm NW): 132.025 (201-393-0855)
WX ASOS at EWR (9 nm W): PHONE 973-621-2892
WX ASOS at JFK (10 nm SE): 128.725 (718-656-0956)
WX AWOS-3 at LDJ (14 nm SW): 124.025 (908-862-7383)
WX ASOS at CDW (16 nm NW): 135.5 (973-575-4417)

Nearby radio navigation aids

VOR radial/distance  VOR name  Freq  Var
LGAr250/5.6LA GUARDIA VOR/DME113.1012W
TEBr160/8.0TETERBORO VOR/DME108.4011W
CRIr345/8.1CANARSIE VOR/DME112.3011W
JFKr315/11.0KENNEDY VOR/DME115.9012W
COLr030/26.7COLTS NECK VOR/DME115.4011W
DPKr275/30.6DEER PARK VOR/DME117.7012W
SAXr139/32.5SPARTA VORTAC115.7011W
SBJr085/36.1SOLBERG VOR/DME112.9010W
CMKr220/37.3CARMEL VOR/DME116.6012W
BWZr107/38.8BROADWAY VOR/DME114.2011W
RBVr047/39.8ROBBINSVILLE VORTAC113.8010W

 
NDB name  Hdg/Dist  Freq  Var  ID
TORBY132/8.421412WTE - .
CHATHAM104/20.825413WCAT -.-. .- -
BABYLON292/27.027514WBBN -... -... -.

Seaplane Base Services

Runway Information

Runway N/S

Dimensions: 10000 x 1000 ft. / 3048 x 305 m
Surface: water
RUNWAY N  RUNWAY S
Traffic pattern: leftleft

Seaplane Base Ownership and Management from official FAA records

Ownership: Publicly-owned
Owner: NEW YORK CITY - ECONOMIC DEV CORP
2430 FDR DRIVE - EAST SERVICE RD
NEW YORK, NY 10010
Phone (212) 481-4806
Manager: TORRELL MILLER
2430 FDR DRIVE - EAST SERVICE RD
NEW YORK, NY 10010
Phone (201) 214-0969

Seaplane Base Operational Statistics

Aircraft operations: avg 34/week *
100% air taxi
* for 12-month period ending 11 April 2019

Additional Remarks

E RIVER-VELOCITY 2.6MPH IN SSW DRCTN. HVY BOAT TFC IN RIVER.
PILOTS REQUIRED TO TAXI 1000' OFF-SHORE ON MANHATAN SIDE BEFORE BEGINNING TAKEOFF.
PILOTS REQUIRED NOT TO FLY OVER THE 59TH STREET BRIDGE.
3 BLADED PROPS REQ'D ON ALL SEAPLANES.
PILOTS MUST COMPLETE A PROVING FLIGHT W/AN AUTHORIZED MEMBER OF THE N.E. SEAPLANES PILOT'S ASSOC. PRIOR TO SPB USE
NO TIE-DOWNS AND NO OVERNIGHT STAYS AVBL.
FOR CD CTC NEW YORK APCH AT 800-645-3206.
CH13 (VHF 165.65) IS MONITORED AT SEAPORT FOR INBD BOAT TFC AND INTERSHIP NAV SAFETY.

Instrument Procedures

There are no published instrument procedures at 6N7.

Some nearby airports with instrument procedures:

6N5 - East 34th Street Heliport (1 nm N)
KJRA - West 30th St Heliport (2 nm NW)
KJRB - Downtown Manhattan/Wall Street Heliport (3 nm SW)
KLGA - LaGuardia Airport (5 nm NE)
KTEB - Teterboro Airport (8 nm NW)
KEWR - Newark Liberty International Airport (9 nm W)
KJFK - John F Kennedy International Airport (10 nm SE)
KLDJ - Linden Airport (14 nm SW)
KCDW - Essex County Airport (16 nm NW)
 
Loc | Ops | Rwys | IFR | FBO | Links
Com | Nav | Svcs | Stats | Notes
Area around 6N7 (New York Skyports Inc Seaplane Base)
 
Road maps at: MapQuest Bing Google
 
Aerial photo
WARNING: Photo may not be current or correct
Aerial photo of 6N7 (New York Skyports Inc Seaplane Base)
Photo by Dave Lu
Photo taken 28-Jun-2013
looking north.

Do you have a better or more recent aerial photo of New York Skyports Inc Seaplane Base that you would like to share? If so, please send us your photo.

 
Sectional chart

 
Airport distance calculator
Flying to New York Skyports Inc Seaplane Base? Find the distance to fly.

From to 6N7

Sunrise and sunset
Times for 10-Jul-2020
 Local
(UTC-4)
 Zulu
(UTC)
Morning civil twilight05:0309:03
Sunrise05:3509:35
Sunset20:2700:27
Evening civil twilight21:0001:00

Current date and time
Zulu (UTC)  10-Jul-2020 18:57:05
Local (UTC-4)  10-Jul-2020 14:57:05
 
METAR
KJRB 
3nm SW 
101840Z AUTO 03014G21KT 1 3/4SM RA BR OVC007 23/22 A2979 RMK AO2 VIS 1V5 TSE11 CIG 004V011 PNO $
KNYC 
3nm N 
101809Z AUTO 05011G19KT 1/4SM +RA FG VV006 23/22 A2985 RMK AO2 P0011 T02280222 $
KLGA 
5nm NE 
101846Z 06020G29KT 1SM R04/3500V5000FT +RA BR BKN005 BKN011 OVC017 23/22 A2979 RMK AO2 PK WND 05029/1841 SFC VIS 1 1/2 P0036
KTEB 
9nm NW 
101837Z 05011G18KT 1/2SM R06/4000VP6000FT RA FG BKN006 BKN011 23/22 A2978 RMK AO2 TSB1753E36 PRESFR P0042 T02330222
KEWR 
9nm W 
101839Z 06012G17KT 2SM R04R/2800VP6000FT RA BR BKN008 BKN014 OVC022 24/23 A2978 RMK AO2 TSE1755 BKN008 V SCT P0044 T02390233
KJFK 
11nm SE 
101846Z 09019G25KT 1SM R04R/1800V4500FT +RA BR FEW000 BKN008 OVC018 24/23 A2979 RMK AO2 PK WND 06032/1820 SFC VIS 1 1/2 RA FEW000 P0063
KLDJ 
14nm SW 
101855Z AUTO 10014G22KT 1 1/2SM RA SCT006 BKN010 BKN015 A2977 RMK AO2 P0034
KCDW 
17nm NW 
101845Z 07011G20KT 3SM -RA BR BKN007 BKN015 OVC042 24/23 A2980 RMK AO2 P0040 T02440228
TAF
KLGA 
5nm NE 
101721Z 1018/1124 05013G22KT 4SM SHRA VCTS SCT003 BKN018CB FM101900 09025G35KT 1SM +SHRA VCTS OVC009CB FM102200 25025G30KT 5SM -SHRA BR BKN015 FM110700 19009G18KT 5SM BR VCSH BKN015 FM111000 22007KT 6SM BR VCSH BKN030 FM111300 21007KT P6SM VCSH BKN090 FM111600 18010KT P6SM SCT120
KTEB 
9nm NW 
101721Z 1018/1124 06006G20KT 4SM SHRA VCTS BKN008CB FM101900 07009G20KT 1SM +SHRA VCTS OVC009CB FM102200 08022G38KT 2SM SHRA BR OVC009 FM110300 12011G17KT 5SM -SHRA BR OVC009 FM110700 20006KT 5SM BR VCSH BKN015 FM111000 22006KT 5SM BR VCSH BKN045 FM111500 19007KT P6SM VCSH SCT120
KEWR 
9nm W 
101721Z 1018/1124 04011G22KT 2SM +SHRA VCTS BKN009CB FM101900 08025G35KT 1SM +SHRA VCTS OVC009CB FM102300 06021G25KT 5SM -SHRA BR OVC009 FM110300 14007G15KT 5SM -SHRA BR OVC009 FM110700 21007KT 5SM BR VCSH BKN009 FM110800 22006KT 5SM BR VCSH BKN015 FM111000 22006KT 6SM BR VCSH BKN025 FM111400 20007KT P6SM VCSH SCT100
KJFK 
11nm SE 
101724Z 1018/1124 08020G30KT 2SM +RA VCTS BKN009CB OVC017 FM101900 10025G40KT 2SM +SHRA VCTS OVC009CB FM102200 23025G30KT 5SM -SHRA BR BKN009 FM110600 19012G18KT 5SM -SHRA BR BKN009 FM110800 21011G12KT 5SM BR VCSH BKN015 FM111100 21010KT P6SM VCSH BKN035 FM111400 19010KT P6SM SCT100
NOTAMs
Click for the latest NOTAMs
NOTAMs are issued by the DoD/FAA and will open in a separate window not controlled by AirNav.

 

 
 

Would you like to see your business listed on this page?

 If your business provides an interesting product or service to pilots, flight crews, aircraft, or users of the New York Skyports Inc Seaplane Base, you should consider listing it here.  To start the listing process, click on the button below
 
Add a business
 

Other Pages about New York Skyports Inc Seaplane Base

Update a link
 
Copyright © AirNav, LLC. All rights reserved. Privacy Policy  Contact